Time;durP1;ratioP1;P1;durP2;ratioP2;P2;SDS_P1;SDS_P2;PMS_P1;PMS_P2;Temp;Humidity;BMP_temperature;BMP_pressure;BME280_temperature;BME280_humidity;BME280_pressure;Samples;Min_cycle;Max_cycle;Signal;HPM_P1;HPM_P2
2022/11/07 00:01:35;;;;;;;8.60;4.25;;;9.40;99.90;;;8.57;100.00;97148.78;4959487;28;20058;-70
2022/11/07 00:04:03;;;;;;;8.70;4.32;;;9.40;99.90;;;8.57;100.00;97137.59;4948691;28;20308;-70
2022/11/07 00:06:30;;;;;;;9.90;3.60;;;9.40;99.90;;;8.65;100.00;97132.13;4960543;28;20095;-70
2022/11/07 00:08:58;;;;;;;10.20;4.05;;;9.50;99.90;;;8.62;100.00;97142.56;4957286;28;20481;-71
2022/11/07 00:11:24;;;;;;;10.38;4.05;;;9.50;99.90;;;8.71;100.00;97139.59;4963842;28;20061;-70
2022/11/07 00:13:51;;;;;;;12.77;3.67;;;9.50;99.90;;;8.72;100.00;97144.72;4960583;28;20054;-70
2022/11/07 00:16:18;;;;;;;11.40;3.95;;;9.50;99.90;;;8.69;100.00;97133.66;4960359;28;20099;-70
2022/11/07 00:18:45;;;;;;;10.35;3.85;;;9.50;99.90;;;8.68;100.00;97132.81;4961982;28;20150;-70
2022/11/07 00:21:12;;;;;;;9.73;4.03;;;9.60;99.90;;;8.78;100.00;97141.88;4974654;28;20047;-70
2022/11/07 00:23:40;;;;;;;8.68;3.47;;;9.60;99.90;;;8.88;100.00;97134.56;4959495;28;20432;-71
2022/11/07 00:26:10;;;;;;;8.15;4.22;;;9.60;99.90;;;8.74;100.00;97142.91;4975688;28;20115;-70
2022/11/07 00:28:41;;;;;;;7.80;3.80;;;9.60;99.90;;;8.82;100.00;97141.75;4957924;28;20043;-71
2022/11/07 00:31:10;;;;;;;11.52;4.13;;;9.70;99.90;;;8.89;100.00;97138.81;4960743;28;20070;-70
2022/11/07 00:33:37;;;;;;;14.18;3.88;;;9.60;99.90;;;8.97;100.00;97133.31;4958073;28;20051;-72
2022/11/07 00:36:04;;;;;;;8.50;3.47;;;9.60;99.90;;;9.05;100.00;97149.34;4958380;28;20467;-70
2022/11/07 00:38:31;;;;;;;11.93;3.75;;;9.70;99.90;;;8.97;100.00;97154.03;4960516;28;20085;-71
2022/11/07 00:41:04;;;;;;;10.30;2.80;;;9.60;99.90;;;8.94;100.00;97154.16;4962488;28;20055;-71
2022/11/07 00:43:32;;;;;;;9.77;3.33;;;9.70;99.90;;;8.93;100.00;97155.91;4960206;28;20063;-72
2022/11/07 00:46:04;;;;;;;9.00;4.10;;;9.70;99.90;;;8.93;100.00;97163.66;4958178;28;20057;-72
2022/11/07 00:48:32;;;;;;;13.15;3.92;;;9.70;99.90;;;8.95;100.00;97154.09;4962871;28;20091;-72
2022/11/07 00:51:08;;;;;;;11.15;3.13;;;9.80;99.90;;;8.89;100.00;97162.09;4965721;28;20055;-72
2022/11/07 00:53:35;;;;;;;9.45;2.88;;;9.80;99.90;;;8.94;100.00;97154.16;4977230;28;20106;-72
2022/11/07 00:56:08;;;;;;;11.80;3.30;;;9.80;99.90;;;9.11;100.00;97150.84;4963136;28;20472;-71
2022/11/07 00:58:36;;;;;;;10.10;2.50;;;9.80;99.90;;;9.01;100.00;97168.53;4965490;28;20081;-72
2022/11/07 01:01:22;;;;;;;11.18;3.88;;;9.80;99.90;;;9.01;100.00;97158.19;4965769;28;20054;-72
2022/11/07 01:06:38;;;;;;;8.05;3.00;;;9.80;99.90;;;9.04;100.00;97157.22;4964787;28;20054;-71
2022/11/07 01:09:10;;;;;;;11.07;2.70;;;9.90;99.90;;;9.04;100.00;97170.97;4962390;28;20055;-72
2022/11/07 01:11:38;;;;;;;9.50;3.00;;;9.90;99.90;;;9.08;100.00;97154.41;4977361;28;20567;-72
2022/11/07 01:14:06;;;;;;;18.88;3.33;;;9.90;99.90;;;9.10;100.00;97162.97;4975525;28;20054;-72
2022/11/07 01:16:35;;;;;;;8.57;2.53;;;9.90;99.90;;;9.11;100.00;97168.97;4963811;28;20058;-71
2022/11/07 01:19:03;;;;;;;9.50;3.00;;;10.00;99.90;;;9.15;100.00;97166.19;4976919;28;20054;-72
2022/11/07 01:21:30;;;;;;;11.43;3.03;;;9.90;99.90;;;9.19;100.00;97169.47;4977751;28;20050;-73
2022/11/07 01:23:57;;;;;;;8.15;3.00;;;9.90;99.90;;;9.24;100.00;97164.09;4963964;28;20054;-73
2022/11/07 01:26:24;;;;;;;11.23;2.97;;;9.90;99.90;;;9.17;100.00;97153.19;4966053;28;20638;-70
2022/11/07 01:28:50;;;;;;;7.20;2.67;;;10.00;99.90;;;9.20;100.00;97146.09;4964474;28;20046;-72
2022/11/07 01:31:18;;;;;;;9.30;2.40;;;9.90;99.90;;;9.24;100.00;97149.41;4962984;28;20081;-72
2022/11/07 01:33:45;;;;;;;9.82;2.50;;;10.00;99.90;;;9.21;100.00;97162.47;4962985;28;20058;-71
2022/11/07 01:36:15;;;;;;;10.05;2.60;;;10.00;99.90;;;9.15;100.00;97160.16;4963892;28;20109;-73
2022/11/07 01:38:47;;;;;;;9.23;2.63;;;10.00;99.90;;;9.17;100.00;97166.97;4963917;28;20158;-73
2022/11/07 01:41:24;;;;;;;9.68;2.85;;;10.00;99.90;;;9.25;100.00;97164.03;4963019;28;20085;-72
2022/11/07 01:44:21;;;;;;;15.85;3.10;;;9.90;99.90;;;9.15;100.00;97155.00;4971346;28;20416;-73
2022/11/07 01:46:49;;;;;;;9.57;2.92;;;10.00;99.90;;;9.19;100.00;97174.66;4980571;28;20054;-72
2022/11/07 01:49:26;;;;;;;9.50;2.80;;;10.00;99.90;;;9.21;100.00;97175.41;4983680;28;20562;-72
2022/11/07 01:52:03;;;;;;;13.68;2.85;;;10.00;99.90;;;9.14;100.00;97163.66;4968654;28;20098;-72
2022/11/07 01:54:43;;;;;;;10.18;2.67;;;10.00;99.90;;;9.10;100.00;97170.72;4981901;28;20058;-73
2022/11/07 01:57:19;;;;;;;7.53;2.60;;;10.00;99.90;;;9.14;100.00;97163.66;4971392;28;20054;-73
2022/11/07 01:59:47;;;;;;;7.82;2.60;;;10.00;99.90;;;9.12;100.00;97171.50;4980412;28;20733;-71
2022/11/07 02:02:14;;;;;;;9.82;2.40;;;10.00;99.90;;;9.13;100.00;97161.97;4966204;28;20051;-73
2022/11/07 02:04:41;;;;;;;7.53;2.83;;;10.00;99.90;;;9.13;100.00;97168.00;4965834;28;20129;-72
2022/11/07 02:07:16;;;;;;;9.95;2.28;;;10.00;99.90;;;9.17;100.00;97164.38;4970328;28;20050;-72
2022/11/07 02:09:44;;;;;;;10.57;2.70;;;10.00;99.90;;;9.17;100.00;97171.31;4984204;28;20472;-72
2022/11/07 02:12:12;;;;;;;9.77;2.50;;;10.00;99.90;;;9.20;100.00;97173.75;4968788;28;20043;-72
2022/11/07 02:14:42;;;;;;;9.82;2.38;;;9.90;99.90;;;9.19;100.00;97172.06;4979514;28;20074;-71
2022/11/07 02:17:11;;;;;;;8.65;2.58;;;10.00;99.90;;;9.23;100.00;97177.94;4966704;28;20443;-71
2022/11/07 02:19:45;;;;;;;9.55;2.67;;;10.00;99.90;;;9.23;100.00;97172.78;4982023;28;20630;-72
2022/11/07 02:22:53;;;;;;;10.73;2.60;;;10.00;99.90;;;9.20;100.00;97165.97;4980432;28;20050;-72
2022/11/07 02:25:20;;;;;;;10.27;2.30;;;10.00;99.90;;;9.19;100.00;97172.06;4981889;28;20093;-72
2022/11/07 02:27:59;;;;;;;12.23;2.83;;;10.00;99.90;;;9.23;100.00;97160.66;4984156;28;20837;-72
2022/11/07 02:30:33;;;;;;;13.18;2.70;;;10.00;99.90;;;9.20;100.00;97147.84;4967765;28;20054;-72
2022/11/07 02:33:16;;;;;;;9.00;2.85;;;10.00;99.90;;;9.16;100.00;97162.66;4968074;28;20054;-72
2022/11/07 02:35:47;;;;;;;10.18;2.85;;;10.00;99.90;;;9.25;100.00;97160.59;4968994;28;20062;-71
2022/11/07 02:38:34;;;;;;;11.20;2.55;;;10.00;99.90;;;9.15;100.00;97163.59;4968889;28;20051;-72
2022/11/07 02:41:15;;;;;;;13.70;2.10;;;10.00;99.90;;;9.17;100.00;97166.13;4983474;28;20146;-71
2022/11/07 02:43:48;;;;;;;13.65;3.38;;;10.00;99.90;;;9.12;100.00;97160.28;4967212;28;20047;-71
2022/11/07 02:46:16;;;;;;;9.98;2.30;;;10.00;99.90;;;9.07;100.00;97160.47;4980345;28;20139;-71
2022/11/07 02:48:50;;;;;;;9.90;2.20;;;10.10;99.90;;;9.07;100.00;97142.38;4966731;28;20050;-70
2022/11/07 02:51:17;;;;;;;7.63;2.10;;;10.00;99.90;;;9.21;100.00;97140.03;4966906;28;20062;-70
2022/11/07 02:53:45;;;;;;;7.63;2.03;;;10.00;99.90;;;9.18;100.00;97147.06;4966602;28;20097;-72
2022/11/07 02:56:12;;;;;;;9.25;1.98;;;9.90;99.90;;;9.18;100.00;97154.84;4966370;28;20393;-71
2022/11/07 02:58:39;;;;;;;5.55;1.77;;;9.90;99.90;;;9.14;100.00;97130.81;4968094;28;20051;-72
2022/11/07 03:01:06;;;;;;;11.27;2.72;;;10.00;99.90;;;9.13;100.00;97152.47;4966910;28;20051;-71
2022/11/07 03:03:39;;;;;;;9.25;1.90;;;10.00;99.90;;;9.15;100.00;97161.00;4966895;28;20069;-71
2022/11/07 03:06:09;;;;;;;9.32;2.13;;;9.90;99.90;;;9.18;100.00;97160.84;4968338;28;20062;-71
2022/11/07 03:08:36;;;;;;;9.13;2.15;;;9.90;99.90;;;9.20;100.00;97156.47;4979943;28;20057;-72
2022/11/07 03:11:03;;;;;;;7.75;2.00;;;9.90;99.90;;;9.14;100.00;97161.06;4965417;28;20051;-70
2022/11/07 03:13:30;;;;;;;9.40;2.65;;;9.90;99.90;;;9.16;100.00;97159.25;4970044;28;20047;-72
2022/11/07 03:15:58;;;;;;;11.15;2.28;;;9.90;99.90;;;9.14;100.00;97154.13;4965785;28;20043;-71
2022/11/07 03:18:25;;;;;;;5.72;2.22;;;9.90;99.90;;;9.21;100.00;97149.53;4964713;28;20091;-71
2022/11/07 03:20:52;;;;;;;11.82;2.10;;;9.90;99.90;;;9.12;100.00;97170.63;4967531;28;20053;-72
2022/11/07 03:23:19;;;;;;;8.75;1.85;;;10.00;99.90;;;9.13;100.00;97172.34;4966479;28;20075;-72
2022/11/07 03:25:46;;;;;;;6.65;1.85;;;10.00;99.90;;;9.10;100.00;97165.56;4966116;28;20053;-70
2022/11/07 03:28:13;;;;;;;9.73;2.33;;;10.00;99.90;;;9.20;100.00;97165.97;4965645;28;20055;-72
2022/11/07 03:30:40;;;;;;;8.80;2.10;;;10.00;99.90;;;9.22;100.00;97169.34;4965113;28;20057;-71
2022/11/07 03:33:07;;;;;;;12.75;2.42;;;10.00;99.90;;;9.17;100.00;97181.66;4962367;28;20559;-70
2022/11/07 03:35:34;;;;;;;9.73;1.92;;;10.00;99.90;;;9.14;100.00;97180.03;4975878;28;20050;-72
2022/11/07 03:38:01;;;;;;;6.95;2.10;;;9.90;99.90;;;9.14;100.00;97174.00;4965909;28;20065;-71
2022/11/07 03:40:28;;;;;;;11.40;2.22;;;10.00;99.90;;;9.19;100.00;97170.31;4967119;28;20089;-72
2022/11/07 03:42:55;;;;;;;9.50;1.98;;;10.00;99.90;;;9.03;100.00;97187.41;4964799;28;20092;-72
2022/11/07 03:45:21;;;;;;;10.00;2.22;;;10.10;99.90;;;9.15;100.00;97194.66;4966676;28;20493;-72
2022/11/07 03:47:48;;;;;;;8.52;1.85;;;10.00;99.90;;;9.11;100.00;97193.09;4967671;28;20094;-71
2022/11/07 03:50:19;;;;;;;5.57;1.55;;;10.00;99.90;;;9.18;100.00;97201.47;4967543;28;20066;-71
2022/11/07 03:52:47;;;;;;;12.75;2.17;;;9.90;99.90;;;9.10;100.00;97204.38;4964086;28;20062;-71
2022/11/07 03:55:16;;;;;;;9.88;2.25;;;9.90;99.90;;;9.13;100.00;97195.66;4966365;28;20047;-70
2022/11/07 03:57:44;;;;;;;5.40;1.50;;;10.00;99.90;;;9.15;100.00;97194.66;4979818;28;20534;-71
2022/11/07 04:00:13;;;;;;;8.70;1.60;;;10.00;99.90;;;9.18;100.00;97198.88;4962302;28;20065;-71
2022/11/07 04:02:42;;;;;;;6.35;2.08;;;10.00;99.90;;;9.07;100.00;97214.84;4977351;28;20043;-71
2022/11/07 04:05:11;;;;;;;11.77;2.35;;;9.90;99.90;;;9.09;100.00;97210.47;4962599;28;20066;-69
2022/11/07 04:07:37;;;;;;;9.50;2.17;;;9.90;99.90;;;9.08;100.00;97205.38;4967177;28;20091;-70
2022/11/07 04:10:05;;;;;;;5.45;1.60;;;10.00;99.90;;;9.10;100.00;97225.09;4967387;28;20144;-71
2022/11/07 04:18:03;;;;;;;9.70;2.47;;;10.00;99.90;;;9.08;100.00;97224.31;4965631;28;20452;-70
2022/11/07 04:20:29;;;;;;;8.07;1.58;;;10.00;99.90;;;9.17;100.00;97223.94;4964816;28;20521;-71
2022/11/07 04:22:57;;;;;;;8.20;1.83;;;10.00;99.90;;;9.12;100.00;97220.69;4963760;28;20663;-71
2022/11/07 04:27:41;;;;;;;6.40;1.48;;;10.00;99.90;;;9.16;100.00;97211.03;4965857;28;20050;-71
2022/11/07 04:28:10;;;;;;;7.93;1.70;;;10.00;99.90;;;9.17;100.00;97210.16;4966397;28;20357;-71
2022/11/07 04:30:37;;;;;;;12.35;1.70;;;10.00;99.90;;;9.14;100.00;97218.03;4964625;28;20326;-70
2022/11/07 04:33:04;;;;;;;7.22;1.45;;;9.90;99.90;;;9.13;100.00;97221.53;4965129;28;20046;-71
2022/11/07 04:35:32;;;;;;;10.95;2.03;;;9.90;99.90;;;9.08;100.00;97218.31;4964634;28;20066;-69
2022/11/07 04:38:00;;;;;;;7.43;2.08;;;9.90;99.90;;;9.13;100.00;97200.81;4965016;28;20054;-70
2022/11/07 04:40:28;;;;;;;10.80;1.67;;;9.90;99.90;;;9.14;100.00;97213.69;4966241;28;20077;-71
2022/11/07 04:42:55;;;;;;;5.10;1.83;;;9.90;99.90;;;9.10;100.00;97219.91;4980981;28;20046;-71
2022/11/07 04:45:23;;;;;;;8.07;1.70;;;9.90;99.90;;;9.10;100.00;97219.06;4964341;28;20046;-70
2022/11/07 04:47:50;;;;;;;10.30;1.90;;;9.90;99.90;;;9.19;100.00;97214.34;4965531;28;20054;-71
2022/11/07 04:50:18;;;;;;;9.63;2.22;;;9.90;99.90;;;9.16;100.00;97216.22;4965530;28;20046;-71
2022/11/07 04:52:46;;;;;;;9.63;2.00;;;9.90;99.90;;;9.11;100.00;97221.59;4967334;28;20082;-70
2022/11/07 04:55:24;;;;;;;9.80;1.83;;;9.90;99.90;;;9.18;100.00;97232.53;4966207;28;20046;-72
2022/11/07 04:57:51;;;;;;;7.18;1.40;;;9.80;99.90;;;9.15;100.00;97222.31;4963610;28;20055;-71
2022/11/07 05:00:20;;;;;;;7.25;2.10;;;9.90;99.90;;;9.19;100.00;97211.75;4962767;28;20054;-71
2022/11/07 05:02:47;;;;;;;11.43;2.28;;;9.90;99.90;;;9.16;100.00;97208.44;4962801;28;20059;-71
2022/11/07 05:05:16;;;;;;;8.25;1.85;;;9.90;99.90;;;9.15;100.00;97211.97;4963396;28;20058;-71
2022/11/07 05:07:44;;;;;;;9.65;1.92;;;10.00;99.90;;;9.15;100.00;97211.97;4979438;28;20057;-71
2022/11/07 05:10:27;;;;;;;5.70;1.92;;;9.90;99.90;;;9.21;100.00;97214.25;4964511;28;20051;-69
2022/11/07 05:12:54;;;;;;;9.15;1.90;;;9.90;99.90;;;9.14;100.00;97220.63;4963409;28;20105;-70
2022/11/07 05:15:22;;;;;;;7.93;2.00;;;9.80;99.90;;;9.10;100.00;97219.91;4964470;28;20485;-71
2022/11/07 05:17:48;;;;;;;16.30;2.05;;;9.80;99.90;;;9.12;100.00;97217.25;4975468;28;20584;-71
2022/11/07 05:20:27;;;;;;;13.30;2.08;;;9.90;99.90;;;9.11;100.00;97233.69;4963707;28;20046;-70
2022/11/07 05:23:14;;;;;;;8.77;1.80;;;9.90;99.90;;;9.10;100.00;97235.47;4965149;28;20054;-70
2022/11/07 05:25:50;;;;;;;8.35;2.08;;;9.90;99.90;;;9.02;100.00;97242.69;4965919;28;20054;-71
2022/11/07 05:28:24;;;;;;;7.82;2.20;;;9.90;99.90;;;9.02;100.00;97247.03;4962484;28;20410;-70
2022/11/07 05:31:03;;;;;;;12.85;2.13;;;9.90;99.90;;;9.12;100.00;97237.97;4975077;28;20147;-71
2022/11/07 05:33:31;;;;;;;9.50;2.47;;;9.80;99.90;;;9.03;100.00;97235.75;4964609;28;20050;-69
2022/11/07 05:36:08;;;;;;;7.03;1.65;;;9.90;99.90;;;9.02;100.00;97252.22;4964833;28;20074;-72
2022/11/07 05:38:39;;;;;;;8.57;2.30;;;9.80;99.90;;;9.07;100.00;97235.56;4960189;28;20051;-70
2022/11/07 05:41:06;;;;;;;6.72;1.65;;;9.90;99.90;;;8.99;100.00;97242.84;4963528;28;20058;-71
2022/11/07 05:43:33;;;;;;;13.38;2.22;;;9.90;99.90;;;9.08;100.00;97228.66;4963751;28;20043;-71
2022/11/07 05:46:00;;;;;;;8.77;1.60;;;9.90;99.90;;;9.05;100.00;97239.13;4960617;28;20497;-72
2022/11/07 05:48:27;;;;;;;7.40;1.98;;;10.00;99.90;;;9.13;100.00;97237.91;4963120;28;20043;-72
2022/11/07 05:50:54;;;;;;;6.72;1.90;;;9.90;99.90;;;9.07;100.00;97253.69;4963750;28;20103;-72
2022/11/07 05:53:21;;;;;;;10.95;2.13;;;9.90;99.90;;;9.09;100.00;97246.69;4978420;28;20054;-72
2022/11/07 05:55:48;;;;;;;9.80;1.80;;;9.90;99.90;;;9.14;100.00;97243.91;4965020;28;20101;-73
2022/11/07 05:58:15;;;;;;;8.02;1.95;;;9.90;99.90;;;9.19;100.00;97252.31;4962728;28;20059;-69
2022/11/07 06:00:42;;;;;;;7.68;1.65;;;9.90;99.90;;;9.24;100.00;97259.91;4960094;28;20058;-71
2022/11/07 06:03:09;;;;;;;6.38;1.45;;;9.90;99.90;;;9.24;100.00;97254.72;4964648;28;20055;-72
2022/11/07 06:05:38;;;;;;;10.50;1.98;;;9.90;99.90;;;9.29;100.00;97265.75;4961213;28;20078;-70
2022/11/07 06:08:11;;;;;;;8.18;1.92;;;9.90;99.90;;;9.29;100.00;97268.34;4960634;28;20058;-72
2022/11/07 06:10:40;;;;;;;11.18;2.25;;;10.00;99.90;;;9.29;100.00;97276.94;4977927;28;20054;-72
2022/11/07 06:13:13;;;;;;;9.10;2.17;;;9.90;99.90;;;9.29;100.00;97273.53;4962124;28;20528;-72
2022/11/07 06:15:43;;;;;;;15.15;2.08;;;10.00;99.90;;;9.24;100.00;97270.25;4963572;28;20047;-70
2022/11/07 06:18:17;;;;;;;9.65;2.10;;;10.00;99.90;;;9.26;100.00;97278.81;4961925;28;20055;-72
2022/11/07 06:20:44;;;;;;;9.52;1.50;;;10.00;99.90;;;9.30;100.00;97277.78;4963944;28;20090;-72
2022/11/07 06:23:12;;;;;;;15.98;2.33;;;10.00;99.90;;;9.31;100.00;97276.91;4964621;28;20061;-72
2022/11/07 06:25:39;;;;;;;13.40;2.33;;;10.00;99.90;;;9.37;100.00;97282.66;4962887;28;20050;-72
2022/11/07 06:28:10;;;;;;;10.10;1.92;;;10.00;99.90;;;9.25;100.00;97288.34;4963178;28;20081;-72
2022/11/07 06:30:37;;;;;;;7.55;1.55;;;10.00;99.90;;;9.28;100.00;97289.94;4982012;28;20061;-72
2022/11/07 06:33:11;;;;;;;11.07;1.63;;;10.00;99.90;;;9.35;100.00;97281.00;4968722;28;20058;-72
2022/11/07 06:35:39;;;;;;;15.82;2.08;;;10.00;99.90;;;9.32;100.00;97275.97;4967792;28;20415;-71
2022/11/07 06:38:11;;;;;;;8.00;1.98;;;10.00;99.90;;;9.36;100.00;97282.72;4968482;28;20541;-72
2022/11/07 06:40:40;;;;;;;7.45;1.92;;;10.00;99.90;;;9.34;100.00;97289.69;4966351;28;20051;-72
2022/11/07 06:43:18;;;;;;;9.75;1.77;;;10.00;99.90;;;9.28;100.00;97285.59;4968650;28;20051;-72
2022/11/07 06:45:46;;;;;;;9.75;2.08;;;10.10;99.90;;;9.30;100.00;97280.38;4967346;28;20070;-69
2022/11/07 06:48:13;;;;;;;11.07;2.03;;;10.00;99.90;;;9.27;100.00;97289.13;4968983;28;20050;-70
2022/11/07 06:50:40;;;;;;;8.95;1.63;;;10.10;99.90;;;9.26;100.00;97284.00;4966722;28;20222;-72
2022/11/07 06:53:10;;;;;;;9.25;2.03;;;10.20;99.90;;;9.42;100.00;97279.88;4966611;28;20145;-72
2022/11/07 06:55:38;;;;;;;8.32;1.70;;;10.20;99.90;;;9.47;100.00;97290.03;4967204;28;20046;-72
2022/11/07 06:58:05;;;;;;;11.25;2.67;;;10.10;99.90;;;9.45;100.00;97295.28;4966718;28;20106;-72
2022/11/07 07:00:34;;;;;;;10.13;1.95;;;10.10;99.90;;;9.46;100.00;97288.34;4966113;28;20042;-70
2022/11/07 07:03:01;;;;;;;9.25;2.17;;;10.10;99.90;;;9.43;100.00;97290.16;4966211;28;20069;-73
2022/11/07 07:05:28;;;;;;;8.30;2.40;;;10.10;99.90;;;9.50;100.00;97293.31;4965615;28;20491;-71
2022/11/07 07:07:55;;;;;;;12.10;1.80;;;10.20;99.90;;;9.36;100.00;97299.09;4967235;28;20063;-72
2022/11/07 07:10:23;;;;;;;9.77;2.17;;;10.20;99.90;;;9.48;100.00;97302.06;4967029;28;20082;-72
2022/11/07 07:12:55;;;;;;;5.95;1.27;;;10.20;99.90;;;9.45;100.00;97305.63;4979939;28;20143;-72
2022/11/07 07:15:22;;;;;;;8.00;1.60;;;10.20;99.90;;;9.40;100.00;97308.41;4966820;28;20501;-72
2022/11/07 07:17:49;;;;;;;11.63;2.08;;;10.20;99.90;;;9.47;100.00;97318.53;4966459;28;20417;-72
2022/11/07 07:20:16;;;;;;;8.15;1.73;;;10.20;99.90;;;9.46;100.00;97309.06;4965826;28;20070;-73
2022/11/07 07:22:44;;;;;;;8.82;1.63;;;10.20;99.90;;;9.45;100.00;97317.75;4967692;28;20062;-72
2022/11/07 07:25:15;;;;;;;11.75;1.58;;;10.20;99.90;;;9.46;100.00;97316.84;4966312;28;20142;-72
2022/11/07 07:27:41;;;;;;;8.48;2.00;;;10.20;99.90;;;9.50;100.00;97319.22;4967872;28;20066;-72
2022/11/07 07:30:09;;;;;;;8.32;1.38;;;10.20;99.90;;;9.45;100.00;97334.13;4967916;28;20051;-72
2022/11/07 07:32:37;;;;;;;8.52;1.40;;;10.20;99.90;;;9.43;100.00;97328.16;4967709;28;20053;-72
2022/11/07 07:35:05;;;;;;;9.65;1.80;;;10.20;99.90;;;9.46;100.00;97335.81;4964593;28;20050;-72
2022/11/07 07:37:32;;;;;;;8.82;1.52;;;10.30;99.90;;;9.54;100.00;97336.34;4964740;28;20081;-72
2022/11/07 07:39:59;;;;;;;13.93;1.70;;;10.20;99.90;;;9.52;100.00;97337.31;4968110;28;20142;-71
2022/11/07 07:42:26;;;;;;;9.10;1.85;;;10.30;99.90;;;9.59;100.00;97328.38;4966101;28;20400;-71
2022/11/07 07:44:53;;;;;;;10.77;1.70;;;10.30;99.90;;;9.56;100.00;97331.09;4964366;28;20047;-71
2022/11/07 07:47:20;;;;;;;14.77;2.15;;;10.30;99.90;;;9.49;100.00;97333.09;4965482;28;20065;-72
2022/11/07 07:49:47;;;;;;;11.27;2.42;;;10.20;99.90;;;9.48;100.00;97325.38;4963639;28;20051;-69
2022/11/07 07:52:13;;;;;;;10.55;1.52;;;10.20;99.90;;;9.53;100.00;97326.84;4967104;28;20049;-72
2022/11/07 07:54:40;;;;;;;9.05;1.77;;;10.20;99.90;;;9.43;100.00;97338.53;4963795;28;20058;-71
2022/11/07 07:57:07;;;;;;;10.27;1.98;;;10.20;99.90;;;9.49;100.00;97332.22;4965563;28;20047;-73
2022/11/07 07:59:34;;;;;;;12.25;1.88;;;10.10;99.90;;;9.47;100.00;97336.66;4965584;28;20445;-72
2022/11/07 08:02:01;;;;;;;12.02;2.33;;;10.20;99.90;;;9.53;100.00;97342.41;4963882;28;20089;-72
2022/11/07 08:04:28;;;;;;;14.35;1.85;;;10.10;99.90;;;9.60;100.00;97346.44;4965575;28;20051;-70
2022/11/07 08:06:55;;;;;;;9.25;2.10;;;10.20;99.90;;;9.58;100.00;97340.47;4966123;28;20226;-71
2022/11/07 08:09:22;;;;;;;11.63;2.10;;;10.30;99.90;;;9.57;100.00;97341.38;4963478;28;20051;-72
2022/11/07 08:11:48;;;;;;;12.88;1.83;;;10.30;99.90;;;9.52;100.00;97350.25;4962968;28;20046;-72
2022/11/07 08:14:15;;;;;;;16.08;2.63;;;10.30;99.90;;;9.50;100.00;97367.63;4964430;28;20062;-72
2022/11/07 08:16:42;;;;;;;13.75;2.28;;;10.30;99.90;;;9.53;100.00;97362.31;4964532;28;20061;-71
2022/11/07 08:19:09;;;;;;;14.50;1.90;;;10.40;99.90;;;9.60;100.00;97355.94;4977441;28;20073;-72
2022/11/07 08:21:36;;;;;;;12.98;2.03;;;10.40;99.90;;;9.56;100.00;97370.81;4964759;28;20062;-70
2022/11/07 08:24:03;;;;;;;7.80;1.48;;;10.40;99.90;;;9.62;100.00;97383.50;4963821;28;20077;-70
2022/11/07 08:26:30;;;;;;;14.45;2.65;;;10.50;99.90;;;9.58;100.00;97381.94;4964660;28;20169;-69
2022/11/07 08:28:57;;;;;;;16.60;2.63;;;10.60;99.90;;;9.64;100.00;97371.31;4966921;28;20099;-70
2022/11/07 08:31:24;;;;;;;12.70;2.45;;;10.60;99.90;;;9.67;100.00;97383.31;4964559;28;20139;-71
2022/11/07 08:33:51;;;;;;;12.52;2.42;;;10.50;99.90;;;9.69;100.00;97388.41;4963264;28;20051;-70
2022/11/07 08:36:18;;;;;;;12.70;2.10;;;10.60;99.90;;;9.77;100.00;97379.41;4965285;28;20153;-70
2022/11/07 08:38:45;;;;;;;14.60;2.10;;;10.70;99.90;;;9.78;100.00;97377.66;4964264;28;20095;-70
2022/11/07 08:41:12;;;;;;;17.40;2.47;;;10.70;99.90;;;9.89;100.00;97388.41;4966555;28;20081;-71
2022/11/07 08:43:44;;;;;;;10.35;2.35;;;10.80;99.90;;;10.01;100.00;97376.66;4975618;28;20043;-71
2022/11/07 08:46:10;;;;;;;13.45;1.90;;;10.90;99.90;;;10.30;100.00;97369.41;4964387;28;20090;-70
2022/11/07 08:48:39;;;;;;;10.65;1.50;;;11.10;99.90;;;10.47;100.00;97385.06;4963109;28;20050;-71
2022/11/07 08:51:06;;;;;;;7.63;1.90;;;11.30;99.90;;;10.67;100.00;97361.63;4965383;28;20070;-70
2022/11/07 08:53:33;;;;;;;15.32;1.80;;;11.50;99.90;;;10.65;100.00;97370.38;4965351;28;20074;-70
2022/11/07 08:56:08;;;;;;;13.20;1.70;;;11.60;99.90;;;10.56;100.00;97379.44;4963616;28;20047;-71
2022/11/07 08:58:36;;;;;;;8.82;1.70;;;11.70;99.90;;;10.52;100.00;97377.91;4964339;28;20058;-71
2022/11/07 09:01:08;;;;;;;16.33;2.47;;;11.70;99.90;;;10.65;100.00;97372.97;4978697;28;20051;-70
2022/11/07 09:03:37;;;;;;;16.52;1.77;;;11.60;99.90;;;10.68;100.00;97391.00;4963849;28;20046;-71
2022/11/07 09:06:13;;;;;;;12.18;2.58;;;11.50;99.90;;;10.38;100.00;97394.09;4975641;28;20134;-70
2022/11/07 09:08:40;;;;;;;10.60;2.08;;;11.50;99.90;;;10.59;100.00;97392.28;4963177;28;20528;-71
2022/11/07 09:11:07;;;;;;;15.80;2.70;;;11.50;99.90;;;10.40;100.00;97401.78;4965160;28;20116;-69
2022/11/07 09:13:34;;;;;;;11.50;2.20;;;11.50;99.90;;;10.49;100.00;97398.81;4964174;28;20039;-70
2022/11/07 09:16:04;;;;;;;14.15;2.53;;;11.40;99.90;;;10.39;100.00;97403.53;4963992;28;20081;-69
2022/11/07 09:18:31;;;;;;;11.50;1.80;;;11.30;99.90;;;10.19;100.00;97404.38;4979848;28;20049;-71
2022/11/07 09:20:59;;;;;;;10.52;2.80;;;11.30;99.90;;;10.26;100.00;97415.34;4963051;28;20560;-69
2022/11/07 09:23:26;;;;;;;11.48;2.13;;;11.20;99.90;;;10.29;100.00;97404.03;4964896;28;20067;-71
2022/11/07 09:25:54;;;;;;;19.73;2.72;;;11.20;99.90;;;10.22;100.00;97416.41;4963316;28;20085;-70
2022/11/07 09:28:20;;;;;;;12.55;2.50;;;11.20;99.90;;;10.17;100.00;97408.81;4962197;28;20655;-71
2022/11/07 09:30:53;;;;;;;12.02;2.17;;;11.10;99.90;;;10.19;100.00;97411.34;4965268;28;20047;-70
2022/11/07 09:33:21;;;;;;;13.35;2.45;;;11.10;99.90;;;10.03;100.00;97421.53;4966564;28;20054;-71
2022/11/07 09:35:48;;;;;;;11.43;2.10;;;11.00;99.90;;;10.20;100.00;97411.28;4965286;28;20054;-70
2022/11/07 09:38:16;;;;;;;10.52;1.80;;;11.00;99.90;;;10.38;100.00;97398.44;4956675;28;20154;-71
2022/11/07 09:40:52;;;;;;;10.85;1.90;;;11.10;99.90;;;10.52;100.00;97405.59;4974320;28;20405;-71
2022/11/07 09:43:42;;;;;;;10.95;1.92;;;11.10;99.90;;;10.38;100.00;97414.84;4978509;28;20098;-71
2022/11/07 09:46:44;;;;;;;12.60;1.90;;;11.30;99.90;;;10.38;100.00;97406.22;4960497;28;20053;-70
2022/11/07 09:49:41;;;;;;;8.60;1.40;;;11.40;99.90;;;10.73;100.00;97402.03;4964061;28;20250;-71
2022/11/07 09:52:37;;;;;;;11.02;1.40;;;11.50;99.90;;;10.66;100.00;97408.41;4962163;28;21601;-71
2022/11/07 09:55:21;;;;;;;12.45;2.03;;;11.70;99.90;;;10.81;100.00;97414.63;4961887;28;20046;-71
2022/11/07 09:57:53;;;;;;;12.40;1.95;;;11.80;99.90;;;10.75;100.00;97423.56;4980606;28;20070;-71
2022/11/07 10:00:27;;;;;;;14.95;2.35;;;12.00;99.90;;;10.70;100.00;97411.69;4957239;28;20050;-71
2022/11/07 10:02:58;;;;;;;14.40;1.98;;;12.10;99.90;;;10.87;100.00;97417.78;4959862;28;20063;-70
2022/11/07 10:06:18;;;;;;;11.15;1.73;;;12.10;99.90;;;11.22;100.00;97399.72;4961551;28;20049;-71
2022/11/07 10:09:11;;;;;;;11.55;2.53;;;12.10;99.90;;;10.95;100.00;97424.38;4970456;28;20051;-71
2022/11/07 10:12:17;;;;;;;15.68;1.80;;;12.10;99.90;;;10.79;100.00;97435.50;4966948;28;20706;-71
2022/11/07 10:15:17;;;;;;;11.13;1.75;;;12.20;99.90;;;10.84;100.00;97438.72;4964653;28;20050;-70
2022/11/07 10:18:27;;;;;;;12.52;1.98;;;12.20;99.90;;;10.87;100.00;97435.13;4980426;28;20520;-70
2022/11/07 10:21:21;;;;;;;13.70;2.25;;;12.10;99.90;;;11.04;100.00;97427.41;4969337;28;20092;-71
2022/11/07 10:24:20;;;;;;;10.32;1.48;;;11.90;99.90;;;11.05;100.00;97436.88;4966138;28;20046;-70
2022/11/07 10:26:47;;;;;;;11.13;1.80;;;11.90;99.90;;;11.10;100.00;97434.06;4966661;28;20054;-70
2022/11/07 10:29:22;;;;;;;10.98;1.55;;;12.10;99.90;;;11.12;100.00;97444.38;4966603;28;20057;-71
2022/11/07 10:32:16;;;;;;;11.88;1.63;;;12.10;99.90;;;11.00;100.00;97451.00;4965770;28;20054;-71
2022/11/07 10:34:54;;;;;;;8.20;1.58;;;12.00;99.90;;;11.07;100.00;97434.22;4967138;28;20146;-70
2022/11/07 10:37:21;;;;;;;11.05;1.80;;;12.10;99.90;;;11.04;100.00;97431.78;4967231;28;20146;-70
2022/11/07 10:39:48;;;;;;;11.77;1.52;;;12.10;99.90;;;10.96;100.00;97439.91;4965981;28;20432;-72
2022/11/07 10:42:26;;;;;;;10.55;1.42;;;12.10;99.90;;;11.08;100.00;97435.88;4969020;28;20092;-71